createdAt,value
2023-08-28T00:01:15.978Z,3.77
2023-08-28T00:03:44.220Z,2.77
2023-08-28T00:06:11.229Z,3.00
2023-08-28T00:08:38.499Z,2.90
2023-08-28T00:11:05.596Z,3.30
2023-08-28T00:13:32.806Z,2.87
2023-08-28T00:15:59.816Z,3.23
2023-08-28T00:18:26.848Z,2.90
2023-08-28T00:20:55.635Z,3.63
2023-08-28T00:23:22.677Z,2.87
2023-08-28T00:25:49.670Z,3.00
2023-08-28T00:28:16.865Z,3.10
2023-08-28T00:30:43.845Z,2.50
2023-08-28T00:33:10.854Z,2.97
2023-08-28T00:35:38.238Z,2.90
2023-08-28T00:38:05.457Z,2.63
2023-08-28T00:40:32.469Z,3.00
2023-08-28T00:42:59.637Z,2.77
2023-08-28T00:45:27.032Z,3.77
2023-08-28T00:47:54.066Z,2.80
2023-08-28T00:50:21.136Z,2.17
2023-08-28T00:52:48.761Z,3.33
2023-08-28T00:55:15.900Z,2.63
2023-08-28T00:57:43.100Z,3.40
2023-08-28T01:00:10.415Z,3.07
2023-08-28T01:02:39.743Z,4.00
2023-08-28T01:05:07.380Z,3.43
2023-08-28T01:07:53.943Z,4.00
2023-08-28T01:10:29.159Z,3.53
2023-08-28T01:13:02.256Z,4.13
2023-08-28T01:15:31.401Z,3.30
2023-08-28T01:18:04.084Z,2.70
2023-08-28T01:20:33.439Z,3.23
2023-08-28T01:23:18.531Z,4.63
2023-08-28T01:25:46.326Z,3.13
2023-08-28T01:28:13.566Z,3.00
2023-08-28T01:30:40.618Z,2.87
2023-08-28T01:33:07.662Z,2.90
2023-08-28T01:35:35.269Z,2.70
2023-08-28T01:38:06.617Z,3.07
2023-08-28T01:41:08.451Z,3.10
2023-08-28T01:43:38.138Z,3.77
2023-08-28T01:46:07.017Z,4.37
2023-08-28T01:48:45.717Z,3.40
2023-08-28T01:51:12.962Z,4.20
2023-08-28T01:53:40.111Z,3.60
2023-08-28T01:56:10.244Z,3.30
2023-08-28T01:58:43.591Z,3.93
2023-08-28T02:01:10.924Z,3.90
2023-08-28T02:03:39.318Z,3.97
2023-08-28T02:06:10.130Z,4.40
2023-08-28T02:08:37.766Z,5.17
2023-08-28T02:11:05.670Z,5.43
2023-08-28T02:13:32.978Z,4.20
2023-08-28T02:16:01.382Z,4.23
2023-08-28T02:18:28.761Z,6.00
2023-08-28T02:20:55.715Z,6.90
2023-08-28T02:23:23.275Z,4.53
2023-08-28T02:25:50.295Z,5.23
2023-08-28T02:28:17.368Z,5.30
2023-08-28T02:30:44.433Z,5.57
2023-08-28T02:33:11.440Z,6.70
2023-08-28T02:35:38.563Z,5.53
2023-08-28T02:38:05.816Z,6.83
2023-08-28T02:40:33.036Z,5.03
2023-08-28T02:43:00.030Z,4.93
2023-08-28T02:45:27.023Z,5.57
2023-08-28T02:47:54.058Z,7.37
2023-08-28T02:50:21.076Z,5.20
2023-08-28T02:52:48.299Z,8.30
2023-08-28T02:55:15.497Z,6.90
2023-08-28T02:57:42.723Z,5.53
2023-08-28T03:00:10.614Z,5.37
2023-08-28T03:02:37.860Z,6.47
2023-08-28T03:05:05.485Z,6.43
2023-08-28T03:07:32.543Z,6.47
2023-08-28T03:09:59.670Z,8.23
2023-08-28T03:12:26.921Z,7.60
2023-08-28T03:14:54.091Z,7.80
2023-08-28T03:17:21.146Z,6.83
2023-08-28T03:19:48.167Z,7.07
2023-08-28T03:22:15.464Z,6.43
2023-08-28T03:24:42.478Z,7.93
2023-08-28T03:27:09.681Z,7.70
2023-08-28T03:29:36.684Z,7.00
2023-08-28T03:32:03.908Z,6.83
2023-08-28T03:34:30.951Z,6.80
2023-08-28T03:36:57.900Z,6.80
2023-08-28T03:39:25.104Z,7.67
2023-08-28T03:41:52.081Z,8.87
2023-08-28T03:44:19.843Z,6.83
2023-08-28T03:46:46.860Z,7.63
2023-08-28T03:49:13.805Z,6.67
2023-08-28T03:51:40.781Z,7.73
2023-08-28T03:54:12.384Z,7.20
2023-08-28T03:56:39.594Z,8.73
2023-08-28T03:59:07.054Z,6.67
2023-08-28T04:01:34.312Z,7.77
2023-08-28T04:04:01.343Z,8.40
2023-08-28T04:06:28.343Z,7.27
2023-08-28T04:08:55.447Z,6.97
2023-08-28T04:11:22.671Z,7.10
2023-08-28T04:13:49.618Z,7.23
2023-08-28T04:16:16.843Z,9.87
2023-08-28T04:18:43.950Z,9.93
2023-08-28T04:21:11.329Z,8.90
2023-08-28T04:23:38.554Z,10.10
2023-08-28T04:26:05.524Z,7.30
2023-08-28T04:28:32.714Z,6.90
2023-08-28T04:30:59.707Z,7.93
2023-08-28T04:33:27.025Z,7.90
2023-08-28T04:35:54.264Z,10.20
2023-08-28T04:38:21.341Z,7.33
2023-08-28T04:40:48.609Z,9.73
2023-08-28T04:43:15.689Z,10.17
2023-08-28T04:45:43.042Z,9.97
2023-08-28T04:48:10.271Z,10.73
2023-08-28T04:50:37.504Z,8.10
2023-08-28T04:53:06.010Z,7.63
2023-08-28T04:55:33.165Z,10.87
2023-08-28T04:58:00.202Z,6.63
2023-08-28T05:00:27.212Z,8.47
2023-08-28T05:02:54.500Z,6.77
2023-08-28T05:05:21.885Z,9.27
2023-08-28T05:07:48.861Z,9.80
2023-08-28T05:10:16.560Z,9.10
2023-08-28T05:12:44.728Z,12.87
2023-08-28T05:15:11.769Z,10.90
2023-08-28T05:17:38.861Z,8.40
2023-08-28T05:20:06.506Z,8.03
2023-08-28T05:22:33.695Z,8.17
2023-08-28T05:25:00.734Z,9.50
2023-08-28T05:27:28.038Z,8.47
2023-08-28T05:29:55.322Z,10.00
2023-08-28T05:32:22.683Z,6.90
2023-08-28T05:34:51.760Z,7.30
2023-08-28T05:37:19.304Z,6.50
2023-08-28T05:39:46.318Z,6.53
2023-08-28T05:42:13.400Z,8.60
2023-08-28T05:44:40.375Z,8.97
2023-08-28T05:47:07.592Z,8.67
2023-08-28T05:49:34.624Z,9.70
2023-08-28T05:52:01.567Z,9.00
2023-08-28T05:54:28.562Z,7.70
2023-08-28T05:56:56.029Z,9.00
2023-08-28T05:59:23.256Z,8.17
2023-08-28T06:01:50.226Z,8.67
2023-08-28T06:04:17.554Z,7.53
2023-08-28T06:06:44.801Z,8.37
2023-08-28T06:09:12.088Z,9.40
2023-08-28T06:11:39.149Z,6.90
2023-08-28T06:14:07.144Z,5.97
2023-08-28T06:16:34.550Z,7.00
2023-08-28T06:19:02.121Z,7.17
2023-08-28T06:21:29.118Z,6.20
2023-08-28T06:23:59.184Z,6.70
2023-08-28T06:26:26.483Z,7.00
2023-08-28T06:28:53.442Z,5.87
2023-08-28T06:31:20.418Z,6.93
2023-08-28T06:33:47.409Z,5.65
2023-08-28T06:36:14.405Z,6.10
2023-08-28T06:38:41.356Z,6.80
2023-08-28T06:41:08.344Z,7.05
2023-08-28T06:43:35.651Z,6.55
2023-08-28T06:46:02.678Z,5.30
2023-08-28T06:48:30.024Z,5.85
2023-08-28T06:50:58.203Z,5.40
2023-08-28T06:53:25.484Z,6.18
2023-08-28T06:55:52.719Z,6.50
2023-08-28T06:58:19.789Z,6.25
2023-08-28T07:00:47.042Z,5.97
2023-08-28T07:03:14.190Z,6.07
2023-08-28T07:05:41.606Z,6.00
2023-08-28T07:08:08.979Z,5.53
2023-08-28T07:13:08.853Z,5.90
2023-08-28T07:15:35.833Z,5.97
2023-08-28T07:18:02.878Z,5.63
2023-08-28T07:20:30.203Z,5.70
2023-08-28T07:22:57.228Z,5.82
2023-08-28T07:25:24.473Z,5.90
2023-08-28T07:27:52.636Z,6.45
2023-08-28T07:30:19.745Z,6.50
2023-08-28T07:32:47.030Z,5.10
2023-08-28T07:35:16.061Z,5.93
2023-08-28T07:37:45.341Z,5.50
2023-08-28T07:40:12.382Z,5.47
2023-08-28T07:42:40.224Z,5.45
2023-08-28T07:45:07.932Z,5.22
2023-08-28T07:47:35.161Z,5.30
2023-08-28T07:50:02.362Z,4.65
2023-08-28T07:52:29.400Z,5.03
2023-08-28T07:54:56.644Z,5.53
2023-08-28T07:57:23.754Z,5.60
2023-08-28T07:59:50.912Z,5.25
2023-08-28T08:02:18.027Z,6.00
2023-08-28T08:04:45.363Z,6.18
2023-08-28T08:07:12.390Z,6.22
2023-08-28T08:09:39.397Z,7.18
2023-08-28T08:12:06.924Z,6.00
2023-08-28T08:14:34.337Z,5.60
2023-08-28T08:17:01.613Z,5.95
2023-08-28T08:19:28.711Z,5.45
2023-08-28T08:21:56.077Z,5.75
2023-08-28T08:24:23.132Z,5.68
2023-08-28T08:26:50.153Z,5.82
2023-08-28T08:29:17.505Z,5.95
2023-08-28T08:31:44.542Z,5.32
2023-08-28T08:34:11.801Z,6.15
2023-08-28T08:36:39.114Z,6.15
2023-08-28T08:39:06.232Z,5.72
2023-08-28T08:41:33.708Z,6.90
2023-08-28T08:44:00.846Z,6.13
2023-08-28T08:46:28.410Z,7.60
2023-08-28T08:48:57.421Z,6.93
2023-08-28T08:51:27.794Z,8.20
2023-08-28T08:54:05.987Z,8.00
2023-08-28T08:56:34.401Z,8.07
2023-08-28T08:59:02.181Z,7.80
2023-08-28T09:01:29.726Z,7.90
2023-08-28T09:04:00.702Z,6.97
2023-08-28T09:06:30.251Z,7.50
2023-08-28T09:08:59.231Z,7.78
2023-08-28T09:11:28.181Z,6.80
2023-08-28T09:13:55.220Z,7.10
2023-08-28T09:16:22.288Z,7.82
2023-08-28T09:18:50.498Z,7.68
2023-08-28T09:21:17.714Z,7.07
2023-08-28T09:23:50.750Z,6.40
2023-08-28T09:26:23.438Z,6.20
2023-08-28T09:29:00.580Z,6.57
2023-08-28T09:31:29.536Z,6.50
2023-08-28T09:34:07.430Z,6.03
2023-08-28T09:36:39.194Z,6.60
2023-08-28T09:39:08.013Z,5.88
2023-08-28T09:41:44.025Z,7.00
2023-08-28T09:44:12.614Z,7.20
2023-08-28T09:46:40.038Z,7.30
2023-08-28T09:49:09.179Z,6.97
2023-08-28T09:51:47.045Z,7.75
2023-08-28T09:54:16.489Z,6.25
2023-08-28T09:56:45.076Z,5.70
2023-08-28T09:59:13.031Z,5.50
2023-08-28T10:01:40.454Z,5.03
2023-08-28T10:04:09.962Z,5.45
2023-08-28T10:06:40.408Z,5.07
2023-08-28T10:09:10.289Z,6.05
2023-08-28T10:11:39.679Z,7.10
2023-08-28T10:14:08.010Z,5.55
2023-08-28T10:16:41.258Z,4.72
2023-08-28T10:19:17.564Z,5.57
2023-08-28T10:21:47.787Z,5.47
2023-08-28T10:24:18.546Z,5.40
2023-08-28T10:26:47.618Z,4.85
2023-08-28T10:29:19.830Z,5.43
2023-08-28T10:31:47.467Z,5.28
2023-08-28T10:34:16.495Z,6.13
2023-08-28T10:37:00.766Z,4.75
2023-08-28T10:39:32.827Z,4.97
2023-08-28T10:42:01.044Z,4.50
2023-08-28T10:44:29.619Z,5.20
2023-08-28T10:46:56.730Z,6.07
2023-08-28T10:49:24.021Z,5.35
2023-08-28T10:52:01.311Z,5.60
2023-08-28T10:54:44.056Z,4.85
2023-08-28T10:57:29.807Z,5.45
2023-08-28T11:00:02.521Z,5.90
2023-08-28T11:03:05.622Z,5.57
2023-08-28T11:05:33.927Z,4.00
2023-08-28T11:08:01.247Z,4.60
2023-08-28T11:10:28.421Z,4.63
2023-08-28T11:12:56.858Z,5.40
2023-08-28T11:15:28.953Z,5.10
2023-08-28T11:18:28.305Z,4.50
2023-08-28T11:21:00.128Z,5.18
2023-08-28T11:23:29.574Z,3.90
2023-08-28T11:26:01.414Z,3.92
2023-08-28T11:28:31.948Z,4.00
2023-08-28T11:31:08.686Z,3.95
2023-08-28T11:33:38.732Z,3.50
2023-08-28T11:36:06.664Z,4.10
2023-08-28T11:38:34.070Z,4.18
2023-08-28T11:41:01.964Z,4.40
2023-08-28T11:43:29.285Z,4.10
2023-08-28T11:45:57.692Z,3.47
2023-08-28T11:48:25.155Z,3.97
2023-08-28T11:51:11.128Z,4.22
2023-08-28T11:53:40.300Z,4.20
2023-08-28T11:56:09.912Z,4.00
2023-08-28T11:58:40.209Z,4.00
2023-08-28T12:01:08.369Z,3.88
2023-08-28T12:03:38.797Z,3.47
2023-08-28T12:06:09.572Z,4.00
2023-08-28T12:08:38.403Z,3.25
2023-08-28T12:11:07.487Z,3.65
2023-08-28T12:13:35.696Z,3.50
2023-08-28T12:16:14.787Z,4.20
2023-08-28T12:18:49.475Z,3.55
2023-08-28T12:21:18.452Z,3.70
2023-08-28T12:23:57.614Z,3.10
2023-08-28T12:26:27.790Z,3.38
2023-08-28T12:28:56.795Z,4.35
2023-08-28T12:31:31.649Z,3.40
2023-08-28T12:34:06.514Z,3.95
2023-08-28T12:36:38.368Z,3.50
2023-08-28T12:39:06.368Z,3.40
2023-08-28T12:41:35.206Z,3.42
2023-08-28T12:44:02.612Z,3.00
2023-08-28T12:46:30.521Z,2.83
2023-08-28T12:48:57.626Z,3.20
2023-08-28T12:51:25.271Z,2.90
2023-08-28T12:53:52.601Z,2.63
2023-08-28T12:56:19.714Z,3.30
2023-08-28T12:58:46.850Z,3.10
2023-08-28T13:01:14.220Z,3.08
2023-08-28T13:03:41.636Z,3.40
2023-08-28T13:06:09.079Z,3.15
2023-08-28T13:08:36.539Z,3.97
2023-08-28T13:11:03.607Z,4.38
2023-08-28T13:13:30.530Z,3.90
2023-08-28T13:15:57.526Z,3.40
2023-08-28T13:18:24.702Z,3.20
2023-08-28T13:20:51.983Z,3.10
2023-08-28T13:23:19.297Z,3.53
2023-08-28T13:25:46.661Z,3.00
2023-08-28T13:28:15.578Z,3.25
2023-08-28T13:30:42.648Z,2.80
2023-08-28T13:33:09.934Z,2.90
2023-08-28T13:35:37.771Z,3.55
2023-08-28T13:38:04.830Z,3.55
2023-08-28T13:40:32.480Z,2.92
2023-08-28T13:42:59.649Z,2.92
2023-08-28T13:45:26.705Z,2.58
2023-08-28T13:47:53.762Z,2.80
2023-08-28T13:50:22.660Z,2.45
2023-08-28T13:52:52.431Z,2.60
2023-08-28T13:55:19.766Z,2.80
2023-08-28T13:57:48.365Z,2.55
2023-08-28T14:00:15.564Z,2.40
2023-08-28T14:02:43.082Z,2.50
2023-08-28T14:05:13.227Z,2.42
2023-08-28T14:07:43.888Z,2.30
2023-08-28T14:10:11.360Z,2.10
2023-08-28T14:12:38.961Z,2.10
2023-08-28T14:15:07.278Z,2.50
2023-08-28T14:17:34.443Z,2.78
2023-08-28T14:20:01.548Z,3.15
2023-08-28T14:22:28.628Z,2.85
2023-08-28T14:24:55.917Z,2.97
2023-08-28T14:27:23.505Z,2.90
2023-08-28T14:29:51.127Z,2.72
2023-08-28T14:32:18.158Z,2.67
2023-08-28T14:34:45.241Z,2.88
2023-08-28T14:37:12.339Z,2.70
2023-08-28T14:39:39.411Z,2.58
2023-08-28T14:42:06.766Z,2.58
2023-08-28T14:44:33.854Z,2.20
2023-08-28T14:47:01.206Z,2.17
2023-08-28T14:49:28.239Z,2.45
2023-08-28T14:51:55.281Z,2.42
2023-08-28T14:54:22.299Z,2.40
2023-08-28T14:56:49.348Z,2.55
2023-08-28T14:59:16.403Z,2.40
2023-08-28T15:01:43.779Z,2.33
2023-08-28T15:04:11.063Z,2.30
2023-08-28T15:06:38.176Z,2.50
2023-08-28T15:09:05.285Z,2.30
2023-08-28T15:11:32.321Z,2.28
2023-08-28T15:14:00.248Z,2.22
2023-08-28T15:16:28.658Z,2.40
2023-08-28T15:18:55.706Z,2.40
2023-08-28T15:21:22.960Z,2.50
2023-08-28T15:23:50.022Z,2.20
2023-08-28T15:26:17.280Z,2.15
2023-08-28T15:28:44.583Z,2.70
2023-08-28T15:31:12.697Z,2.42
2023-08-28T15:33:39.773Z,2.22
2023-08-28T15:36:06.832Z,2.30
2023-08-28T15:38:34.124Z,2.50
2023-08-28T15:41:04.158Z,2.40
2023-08-28T15:43:31.212Z,2.38
2023-08-28T15:46:00.184Z,2.53
2023-08-28T15:48:27.621Z,2.50
2023-08-28T15:50:54.982Z,2.40
2023-08-28T15:53:22.203Z,2.53
2023-08-28T15:55:53.124Z,2.60
2023-08-28T15:58:22.133Z,2.55
2023-08-28T16:00:49.516Z,2.28
2023-08-28T16:03:18.259Z,2.53
2023-08-28T16:05:45.648Z,2.38
2023-08-28T16:08:16.781Z,2.58
2023-08-28T16:10:43.875Z,2.28
2023-08-28T16:13:11.153Z,2.40
2023-08-28T16:15:40.518Z,3.40
2023-08-28T16:18:07.548Z,4.13
2023-08-28T16:20:34.782Z,3.25
2023-08-28T16:23:02.082Z,9.18
2023-08-28T16:25:29.323Z,5.63
2023-08-28T16:27:56.377Z,4.47
2023-08-28T16:30:23.660Z,3.60
2023-08-28T16:32:50.687Z,3.78
2023-08-28T16:35:17.705Z,3.22
2023-08-28T16:37:44.777Z,2.33
2023-08-28T16:40:12.022Z,2.55
2023-08-28T16:42:39.674Z,2.60
2023-08-28T16:45:07.510Z,3.33
2023-08-28T16:47:34.823Z,2.90
2023-08-28T16:50:02.195Z,2.72
2023-08-28T16:52:29.228Z,2.40
2023-08-28T16:54:56.962Z,2.67
2023-08-28T16:57:25.266Z,2.28
2023-08-28T16:59:52.364Z,2.80
2023-08-28T17:02:19.751Z,5.82
2023-08-28T17:04:47.007Z,4.20
2023-08-28T17:07:14.430Z,2.70
2023-08-28T17:09:41.502Z,5.65
2023-08-28T17:12:08.841Z,2.40
2023-08-28T17:14:36.086Z,2.30
2023-08-28T17:17:03.216Z,2.30
2023-08-28T17:19:30.284Z,2.20
2023-08-28T17:21:57.322Z,2.00
2023-08-28T17:24:24.616Z,2.10
2023-08-28T17:26:51.641Z,2.08
2023-08-28T17:29:18.757Z,2.00
2023-08-28T17:31:46.073Z,2.00
2023-08-28T17:34:13.416Z,2.20
2023-08-28T17:36:40.679Z,2.15
2023-08-28T17:39:17.817Z,2.00
2023-08-28T17:41:45.661Z,2.13
2023-08-28T17:44:12.965Z,1.90
2023-08-28T17:46:40.944Z,1.85
2023-08-28T17:49:08.002Z,2.15
2023-08-28T17:51:37.235Z,2.20
2023-08-28T17:54:07.794Z,2.10
2023-08-28T17:56:36.139Z,2.20
2023-08-28T17:59:04.366Z,2.80
2023-08-28T18:01:33.552Z,3.72
2023-08-28T18:04:00.871Z,3.60
2023-08-28T18:06:28.032Z,3.60
2023-08-28T18:08:55.533Z,3.80
2023-08-28T18:11:23.705Z,3.45
2023-08-28T18:13:51.166Z,3.60
2023-08-28T18:16:19.358Z,4.20
2023-08-28T18:18:47.880Z,3.42
2023-08-28T18:21:14.939Z,3.30
2023-08-28T18:23:44.196Z,3.88
2023-08-28T18:26:11.273Z,3.28
2023-08-28T18:28:38.357Z,3.22
2023-08-28T18:31:07.908Z,3.78
2023-08-28T18:33:34.973Z,2.88
2023-08-28T18:36:02.186Z,3.25
2023-08-28T18:38:29.520Z,3.40
2023-08-28T18:40:56.611Z,3.30
2023-08-28T18:43:23.716Z,3.20
2023-08-28T18:45:50.707Z,3.20
2023-08-28T18:48:18.216Z,2.80
2023-08-28T18:50:46.235Z,2.90
2023-08-28T18:53:13.345Z,2.75
2023-08-28T18:55:40.483Z,2.90
2023-08-28T18:58:08.716Z,3.27
2023-08-28T19:00:36.483Z,2.97
2023-08-28T19:03:03.714Z,3.00
2023-08-28T19:05:31.523Z,3.30
2023-08-28T19:07:58.709Z,3.07
2023-08-28T19:10:26.007Z,3.13
2023-08-28T19:12:53.265Z,3.17
2023-08-28T19:15:20.281Z,3.23
2023-08-28T19:17:47.516Z,3.10
2023-08-28T19:20:14.820Z,3.00
2023-08-28T19:22:46.711Z,3.80
2023-08-28T19:25:13.862Z,3.60
2023-08-28T19:27:43.710Z,3.20
2023-08-28T19:30:12.267Z,3.60
2023-08-28T19:32:41.761Z,3.40
2023-08-28T19:35:10.690Z,3.10
2023-08-28T19:37:39.402Z,3.50
2023-08-28T19:40:08.194Z,3.50
2023-08-28T19:42:36.166Z,3.73
2023-08-28T19:45:04.416Z,3.67
2023-08-28T19:47:32.208Z,3.53
2023-08-28T19:49:59.768Z,3.37
2023-08-28T19:52:27.209Z,3.70
2023-08-28T19:54:54.549Z,3.90
2023-08-28T19:57:23.180Z,3.40
2023-08-28T19:59:50.509Z,2.83
2023-08-28T20:02:18.485Z,3.13
2023-08-28T20:04:46.169Z,3.20
2023-08-28T20:07:16.983Z,3.17
2023-08-28T20:09:44.437Z,3.53
2023-08-28T20:12:12.037Z,3.20
2023-08-28T20:14:41.398Z,3.40
2023-08-28T20:17:09.791Z,3.30
2023-08-28T20:19:37.540Z,3.93
2023-08-28T20:22:05.804Z,3.67
2023-08-28T20:24:33.366Z,3.80
2023-08-28T20:27:01.856Z,3.27
2023-08-28T20:29:29.201Z,3.50
2023-08-28T20:31:56.193Z,3.00
2023-08-28T20:34:23.500Z,3.93
2023-08-28T20:36:50.669Z,4.20
2023-08-28T20:39:17.928Z,4.73
2023-08-28T20:41:45.267Z,4.90
2023-08-28T20:44:12.623Z,5.17
2023-08-28T20:46:39.873Z,5.77
2023-08-28T20:49:07.240Z,7.03
2023-08-28T20:51:34.558Z,6.10
2023-08-28T20:54:01.802Z,6.33
2023-08-28T20:56:29.531Z,6.23
2023-08-28T20:58:56.847Z,5.73
2023-08-28T21:01:23.973Z,6.10
2023-08-28T21:03:51.153Z,5.10
2023-08-28T21:06:19.734Z,5.27
2023-08-28T21:08:47.016Z,5.77
2023-08-28T21:11:14.301Z,5.30
2023-08-28T21:13:41.340Z,5.43
2023-08-28T21:16:08.678Z,6.13
2023-08-28T21:18:36.048Z,5.40
2023-08-28T21:21:04.021Z,5.20
2023-08-28T21:23:31.380Z,4.70
2023-08-28T21:25:59.659Z,4.90
2023-08-28T21:28:30.630Z,4.57
2023-08-28T21:31:01.328Z,4.30
2023-08-28T21:33:29.994Z,4.57
2023-08-28T21:35:58.519Z,3.57
2023-08-28T21:38:28.353Z,4.20
2023-08-28T21:40:55.364Z,4.30
2023-08-28T21:43:23.401Z,4.53
2023-08-28T21:46:01.324Z,3.63
2023-08-28T21:48:30.767Z,3.90
2023-08-28T21:50:58.086Z,4.30
2023-08-28T21:53:25.330Z,4.43
2023-08-28T21:55:53.215Z,4.23
2023-08-28T21:58:22.102Z,4.70
2023-08-28T22:00:49.377Z,3.90
2023-08-28T22:03:17.162Z,4.77
2023-08-28T22:05:44.688Z,4.23
2023-08-28T22:08:12.161Z,5.40
2023-08-28T22:10:40.346Z,4.50
2023-08-28T22:13:08.088Z,4.13
2023-08-28T22:15:36.270Z,4.20
2023-08-28T22:18:04.967Z,4.30
2023-08-28T22:20:33.376Z,3.97
2023-08-28T22:23:00.501Z,4.00
2023-08-28T22:25:27.656Z,3.80
2023-08-28T22:27:55.143Z,3.90
2023-08-28T22:30:22.116Z,4.07
2023-08-28T22:32:49.170Z,3.70
2023-08-28T22:35:16.300Z,3.80
2023-08-28T22:37:43.587Z,3.37
2023-08-28T22:40:11.444Z,4.93
2023-08-28T22:42:38.469Z,4.50
2023-08-28T22:45:06.245Z,5.00
2023-08-28T22:47:33.918Z,5.30
2023-08-28T22:50:01.307Z,4.63
2023-08-28T22:52:31.098Z,4.60
2023-08-28T22:54:58.159Z,4.13
2023-08-28T22:57:25.475Z,4.27
2023-08-28T22:59:52.509Z,4.70
2023-08-28T23:02:19.766Z,5.03
2023-08-28T23:04:46.716Z,5.20
2023-08-28T23:07:13.747Z,5.63
2023-08-28T23:09:41.368Z,5.90
2023-08-28T23:12:08.502Z,5.47
2023-08-28T23:14:35.516Z,5.27
2023-08-28T23:17:02.528Z,5.40
2023-08-28T23:19:29.724Z,4.13
2023-08-28T23:21:56.681Z,5.00
2023-08-28T23:24:23.723Z,3.90
2023-08-28T23:26:50.950Z,4.00
2023-08-28T23:29:18.166Z,3.70
2023-08-28T23:31:45.241Z,5.20
2023-08-28T23:34:12.261Z,4.23
2023-08-28T23:36:39.718Z,4.27
2023-08-28T23:39:06.770Z,4.20
2023-08-28T23:41:37.257Z,3.87
2023-08-28T23:44:05.672Z,5.07
2023-08-28T23:46:32.819Z,4.80
2023-08-28T23:48:59.975Z,4.57
2023-08-28T23:51:27.294Z,3.97
2023-08-28T23:53:54.236Z,5.13
2023-08-28T23:56:21.451Z,5.27
2023-08-28T23:58:48.472Z,4.30
